BLACK BUTTE (BLB)

Elevation: 426' · STONY CR basin · Operator: US Army Corps of Engineers

Provisional data, subject to change.
Query executed Friday at 14:17:29   clock

Select a sensor type for a plot of data.
Note: Reservoir Flows are daily averages.

Earlier

Date RES ELE    STORAGE    RES CHG    TOC STO    ABV TOC    OUTFLOW    INFLOW    PPT INC    TEMP MN    TEMP MX    EVP PAN   
 FEET   AF   AF   AF   AF   CFS   CFS   INCHES   DEG F   DEG F   INCHES  
01/28/2015 444.64 40963 87 29800 11163 27 78 0.00 9 22 0.09
01/29/2015 444.69 41071 108 29800 11271 27 88 0.00 6 22 0.09
01/30/2015 444.71 41115 44 29800 11315 26 59 0.01 10 23 0.14
01/31/2015 444.76 41224 109 30395 10829 26 92 0.00 12 23 0.16
02/01/2015 444.79 41289 65 30395 10894 26 62 0.00 5 18 0.06
02/02/2015 444.83 41376 87 29800 11576 28 76 0.00 9 17 0.06
02/03/2015 444.88 41486 110 29800 11686 30 89 0.00 9 18 0.06
02/04/2015 444.92 41573 87 29800 11773 29 76 0.00 8 17 0.05
02/05/2015 444.96 41661 88 29800 11861 33 81 0.00 9 14 0.05
02/06/2015 445.21 42212 551 29800 12412 481 762 4.03 11 14 0.05
02/07/2015 447.20 46761 4549 29800 16961 895 3194 0.06 13 18 0.09
02/08/2015 449.30 51881 5120 29800 22081 907 3492 1.40 12 17 0.05
02/09/2015 451.55 57765 5884 29800 27965 1620 4596 0.30 10 20 0.12
02/10/2015 452.15 59409 1644 29847 29562 2008 2845 0.12 5 19 0.10
02/11/2015 451.99 58967 -442 30197 28761 1764 1548 0.07 6 20 0.09
02/12/2015 451.84 58555 -412 30785 27775 1560 1360 0.06 9 22 0.10
02/13/2015 451.81 58473 -82 32475 25998 1166 1132 0.02 9 22 0.09
02/14/2015 451.76 58336 -137 34213 24123 1099 1040 0.00 9 24 0.12
02/15/2015 451.64 58009 -327 35993 22016 986 833 0.00 12 24 0.15
02/16/2015 451.51 57656 -353 37802 19854 882 713 0.00 9 24 0.12
02/17/2015 451.42 57413 -243 39610 17803 743 628 0.00 8 22 0.09
02/18/2015 451.35 57224 -189 41437 15787 636 548 0.00 8 19 0.09
02/19/2015 451.26 56981 -243 43222 13759 490 374 0.00 10 19 0.08
02/20/2015 451.25 56955 -26 45023 11932 334 332 0.00 8 23 0.14
02/21/2015 451.24 56928 -27 46825 -- -- -- -- -- -- --
02/22/2015 451.22 56874 -54 48656 8218 293 281 0.00 10 17 0.19
02/23/2015 451.22 56874 0 50500 6374 271 285 0.00 7 18 0.17
02/24/2015 451.32 57143 269 52263 4880 156 302 0.01 5 21 0.14
02/25/2015 451.47 57548 -- 54092 3456 53 267 0.00 4 23 0.12
02/26/2015 451.62 57955 407 55964 1991 -- -- -- -- -- --
02/27/2015 -- -- -- -- -- -- -- -- -- -- --

Later | Latest

Warning! This data is preliminary and subject to revision.

Show BLB Map | Plot BLB Data | 1 Month BLB Data | Real-Time BLB Data | BLB Info